Time;durP1;ratioP1;P1;durP2;ratioP2;P2;SDS_P1;SDS_P2;PMS_P1;PMS_P2;Temp;Humidity;BMP_temperature;BMP_pressure;BME280_temperature;BME280_humidity;BME280_pressure;Samples;Min_cycle;Max_cycle;Signal;HPM_P1;HPM_P2
2022/06/22 00:01:37;;;;;;;2.60;1.42;;;16.10;80.30;;;;;;5069129;28;20040;-58
2022/06/22 00:04:04;;;;;;;3.83;1.50;;;16.10;80.40;;;;;;5065332;28;20142;-58
2022/06/22 00:06:37;;;;;;;3.05;1.77;;;16.00;80.80;;;;;;5069407;28;20104;-58
2022/06/22 00:09:03;;;;;;;3.55;1.73;;;15.90;81.10;;;;;;5079982;28;20503;-58
2022/06/22 00:11:29;;;;;;;2.72;1.48;;;15.90;81.40;;;;;;5070693;28;20024;-58
2022/06/22 00:13:58;;;;;;;4.05;1.80;;;15.90;81.50;;;;;;5067790;28;20020;-58
2022/06/22 00:16:28;;;;;;;3.17;1.87;;;15.80;81.70;;;;;;5067726;28;20020;-58
2022/06/22 00:18:54;;;;;;;;;;;15.70;81.80;;;;;;5069758;28;21050;-58
2022/06/22 00:21:41;;;;;;;2.92;1.35;;;15.70;81.80;;;;;;5069927;28;19912;-58
2022/06/22 00:24:34;;;;;;;2.35;1.50;;;15.70;82.40;;;;;;5062699;28;20031;-58
2022/06/22 00:27:20;;;;;;;2.83;1.70;;;15.70;82.50;;;;;;5067733;28;20028;-58
2022/06/22 00:29:58;;;;;;;4.45;1.98;;;15.70;82.90;;;;;;5078341;28;20028;-58
2022/06/22 00:32:27;;;;;;;2.60;1.83;;;15.70;83.10;;;;;;5062977;28;20021;-58
2022/06/22 00:34:53;;;;;;;2.53;1.80;;;15.70;83.30;;;;;;5068217;28;20040;-58
2022/06/22 00:37:22;;;;;;;3.47;2.08;;;15.70;83.50;;;;;;5068343;28;20032;-58
2022/06/22 00:39:51;;;;;;;4.30;2.60;;;15.70;83.70;;;;;;5068323;28;20055;-58
2022/06/22 00:42:41;;;;;;;3.88;2.63;;;15.60;84.00;;;;;;5066536;28;20084;-58
2022/06/22 00:45:29;;;;;;;5.25;2.50;;;15.60;84.30;;;;;;5067312;28;20032;-58
2022/06/22 00:48:04;;;;;;;4.57;2.50;;;15.60;84.60;;;;;;5067583;28;20028;-58
2022/06/22 00:50:44;;;;;;;4.10;2.80;;;15.60;85.00;;;;;;5067359;28;20047;-58
2022/06/22 00:53:22;;;;;;;4.53;2.60;;;15.60;85.30;;;;;;5065952;28;20104;-58
2022/06/22 00:55:53;;;;;;;3.75;3.03;;;15.50;85.60;;;;;;5075963;28;20044;-58
2022/06/22 00:58:22;;;;;;;3.67;2.85;;;15.50;86.10;;;;;;5074760;28;20484;-58
2022/06/22 01:01:06;;;;;;;4.75;2.47;;;15.40;86.30;;;;;;5067703;28;20032;-58
2022/06/22 01:03:41;;;;;;;6.97;2.90;;;15.40;86.50;;;;;;5064817;28;20033;-58
2022/06/22 01:06:19;;;;;;;3.92;2.92;;;15.40;87.10;;;;;;5067580;28;20020;-58
2022/06/22 01:09:04;;;;;;;7.43;3.28;;;15.30;87.60;;;;;;5068400;28;20024;-58
2022/06/22 01:12:22;;;;;;;3.70;2.90;;;15.30;88.20;;;;;;5067278;28;20157;-58
2022/06/22 01:15:13;;;;;;;4.10;2.78;;;15.30;88.60;;;;;;5026284;28;20505;-58
2022/06/22 01:17:48;;;;;;;5.50;3.50;;;15.20;89.10;;;;;;5065997;28;20033;-58
2022/06/22 01:20:23;;;;;;;6.70;3.72;;;15.10;89.90;;;;;;5068548;28;20476;-58
2022/06/22 01:23:12;;;;;;;7.32;3.88;;;15.00;90.20;;;;;;5067797;28;20032;-58
2022/06/22 01:26:18;;;;;;;6.57;4.75;;;15.10;90.40;;;;;;5046162;28;20044;-58
2022/06/22 01:29:13;;;;;;;5.35;3.20;;;15.00;90.70;;;;;;5052109;28;20104;-58
2022/06/22 01:31:51;;;;;;;5.20;3.47;;;15.00;90.90;;;;;;5061102;28;20056;-58
2022/06/22 01:34:17;;;;;;;5.70;2.97;;;15.00;91.00;;;;;;5067634;28;20027;-58
2022/06/22 01:36:44;;;;;;;5.22;3.00;;;15.00;91.10;;;;;;5064259;28;20024;-58
2022/06/22 01:39:13;;;;;;;4.53;3.25;;;15.00;91.10;;;;;;5066132;28;20025;-58
2022/06/22 01:41:42;;;;;;;4.68;2.30;;;15.00;91.20;;;;;;5067860;28;20530;-58
2022/06/22 01:44:26;;;;;;;3.45;2.58;;;15.10;91.20;;;;;;5066965;28;20024;-58
2022/06/22 01:47:16;;;;;;;4.15;2.53;;;15.00;91.20;;;;;;5078522;28;20028;-59
2022/06/22 01:50:02;;;;;;;3.83;2.95;;;15.00;91.20;;;;;;5068421;28;20017;-58
2022/06/22 01:52:49;;;;;;;4.18;2.60;;;14.90;91.30;;;;;;5050838;28;20044;-58
2022/06/22 01:55:37;;;;;;;4.53;2.92;;;15.00;91.40;;;;;;5067324;28;20028;-58
2022/06/22 01:58:14;;;;;;;3.20;2.90;;;14.90;91.50;;;;;;5065665;28;20056;-58
2022/06/22 02:00:42;;;;;;;4.22;2.75;;;14.90;91.60;;;;;;5066213;28;20025;-58
2022/06/22 02:03:19;;;;;;;4.25;3.08;;;14.80;91.60;;;;;;5067489;28;20036;-58
2022/06/22 02:05:57;;;;;;;5.05;3.35;;;14.80;91.60;;;;;;5063475;28;20166;-58
2022/06/22 02:08:31;;;;;;;3.60;3.17;;;14.80;91.70;;;;;;5082824;28;20108;-58
2022/06/22 02:11:17;;;;;;;5.35;3.78;;;14.70;91.80;;;;;;5067264;28;20368;-58
2022/06/22 02:13:59;;;;;;;4.80;3.88;;;14.70;92.00;;;;;;5063577;28;20021;-58
2022/06/22 02:16:50;;;;;;;6.30;4.40;;;14.70;92.20;;;;;;5066559;28;20017;-58
2022/06/22 02:19:17;;;;;;;5.53;4.13;;;14.60;92.40;;;;;;5080955;28;20033;-58
2022/06/22 02:21:50;;;;;;;5.68;3.67;;;14.50;92.50;;;;;;5066049;28;20610;-58
2022/06/22 02:24:19;;;;;;;5.30;4.30;;;14.60;92.70;;;;;;5066386;28;20032;-58
2022/06/22 02:26:53;;;;;;;8.50;4.63;;;14.40;92.80;;;;;;5063076;28;20025;-58
2022/06/22 02:29:24;;;;;;;4.85;4.00;;;14.50;93.00;;;;;;5067809;28;20021;-58
2022/06/22 02:31:53;;;;;;;6.32;5.20;;;14.40;93.20;;;;;;5066379;28;20013;-58
2022/06/22 02:34:19;;;;;;;6.68;4.75;;;14.40;93.30;;;;;;5066636;28;20020;-58
2022/06/22 02:36:47;;;;;;;5.55;4.10;;;14.40;93.40;;;;;;5062821;28;20037;-58
2022/06/22 02:39:14;;;;;;;4.40;4.00;;;14.40;93.40;;;;;;5068082;28;20031;-58
2022/06/22 02:44:33;;;;;;;7.05;4.63;;;14.40;93.50;;;;;;5063443;28;20582;-58
2022/06/22 02:47:09;;;;;;;6.82;4.70;;;14.40;93.60;;;;;;5067921;28;20021;-58
2022/06/22 02:49:39;;;;;;;4.78;4.20;;;14.30;93.70;;;;;;5069882;28;20077;-58
2022/06/22 02:52:07;;;;;;;5.93;4.35;;;14.20;93.80;;;;;;5070148;28;20522;-57
2022/06/22 02:54:42;;;;;;;6.75;4.63;;;14.20;94.00;;;;;;5069285;28;20095;-58
2022/06/22 02:57:35;;;;;;;7.40;4.95;;;14.20;94.10;;;;;;5068372;28;20048;-58
2022/06/22 03:00:02;;;;;;;7.68;4.85;;;14.20;94.20;;;;;;5070591;28;20456;-57
2022/06/22 03:02:27;;;;;;;8.75;4.88;;;14.10;94.40;;;;;;5067942;28;20028;-58
2022/06/22 03:04:57;;;;;;;4.90;4.05;;;14.00;94.40;;;;;;5070067;28;20392;-58
2022/06/22 03:07:23;;;;;;;5.28;4.20;;;14.10;94.40;;;;;;5068067;28;20062;-57
2022/06/22 03:09:49;;;;;;;6.97;4.68;;;14.10;94.40;;;;;;5071341;28;20032;-58
2022/06/22 03:12:15;;;;;;;5.15;4.60;;;14.00;94.50;;;;;;5067975;28;20081;-58
2022/06/22 03:14:46;;;;;;;8.27;4.63;;;14.00;94.50;;;;;;5071086;28;20036;-58
2022/06/22 03:17:16;;;;;;;4.40;3.92;;;14.00;94.50;;;;;;5066464;28;20021;-58
2022/06/22 03:19:56;;;;;;;6.25;4.25;;;14.00;94.50;;;;;;5070842;28;20060;-57
2022/06/22 03:22:35;;;;;;;5.53;3.70;;;14.00;94.50;;;;;;5084431;28;20060;-58
2022/06/22 03:25:27;;;;;;;4.32;3.80;;;14.00;94.50;;;;;;5069078;28;20437;-58
2022/06/22 03:27:58;;;;;;;3.95;3.53;;;14.00;94.50;;;;;;5067444;28;20048;-57
2022/06/22 03:30:28;;;;;;;5.20;3.42;;;14.00;94.50;;;;;;5070298;28;20042;-58
2022/06/22 03:33:08;;;;;;;4.55;3.50;;;14.00;94.50;;;;;;5069376;28;20051;-57
2022/06/22 03:35:48;;;;;;;6.15;4.45;;;14.00;94.50;;;;;;5066942;28;20431;-58
2022/06/22 03:38:22;;;;;;;;;;;14.00;94.50;;;;;;5068838;28;20027;-58
2022/06/22 03:41:17;;;;;;;4.00;3.35;;;13.90;94.50;;;;;;5067232;28;19912;-57
2022/06/22 03:43:50;;;;;;;4.00;3.22;;;13.90;94.70;;;;;;5062694;28;20086;-57
2022/06/22 03:46:27;;;;;;;4.32;3.55;;;13.80;94.60;;;;;;5067714;28;20032;-57
2022/06/22 03:49:17;;;;;;;4.57;3.67;;;13.80;94.60;;;;;;5070288;28;20027;-57
2022/06/22 03:51:51;;;;;;;4.88;3.55;;;13.80;94.50;;;;;;5069052;28;20020;-58
2022/06/22 03:54:46;;;;;;;4.22;3.83;;;13.80;94.60;;;;;;5065526;28;20055;-58
2022/06/22 03:57:13;;;;;;;4.63;3.80;;;13.80;94.50;;;;;;5066921;28;20044;-57
2022/06/22 03:59:44;;;;;;;5.65;3.95;;;13.70;94.60;;;;;;5067765;28;20033;-58
2022/06/22 04:02:10;;;;;;;6.68;3.75;;;13.70;94.60;;;;;;5069964;28;20032;-58
2022/06/22 04:04:36;;;;;;;4.18;3.58;;;13.80;94.60;;;;;;5067911;28;20056;-58
2022/06/22 04:07:02;;;;;;;4.55;3.67;;;13.70;94.50;;;;;;5067100;28;20086;-58
2022/06/22 04:09:29;;;;;;;3.47;3.17;;;13.70;94.50;;;;;;5066832;28;20033;-57
2022/06/22 04:11:55;;;;;;;3.42;3.13;;;13.70;94.50;;;;;;5068782;28;20059;-57
2022/06/22 04:14:32;;;;;;;4.88;3.60;;;13.70;94.60;;;;;;5067805;28;20504;-58
2022/06/22 04:17:03;;;;;;;6.95;3.95;;;13.70;94.60;;;;;;5066393;28;20016;-58
2022/06/22 04:19:35;;;;;;;4.85;4.30;;;13.70;94.60;;;;;;5067139;28;20472;-58
2022/06/22 04:22:06;;;;;;;8.80;5.40;;;13.80;94.60;;;;;;5067726;28;20060;-58
2022/06/22 04:24:42;;;;;;;5.78;4.57;;;13.80;94.70;;;;;;5066768;28;20075;-58
2022/06/22 04:27:16;;;;;;;9.48;5.53;;;13.80;94.80;;;;;;5064520;28;20495;-58
2022/06/22 04:30:04;;;;;;;8.82;5.97;;;13.80;94.90;;;;;;5067869;28;20028;-57
2022/06/22 04:32:56;;;;;;;6.78;5.30;;;13.80;95.00;;;;;;5069197;28;20504;-58
2022/06/22 04:35:33;;;;;;;8.77;6.00;;;13.80;95.20;;;;;;5067550;28;20772;-57
2022/06/22 04:38:23;;;;;;;6.82;5.30;;;13.80;95.30;;;;;;5064633;28;20107;-58
2022/06/22 04:41:21;;;;;;;9.60;6.20;;;13.80;95.40;;;;;;5067418;28;20492;-57
2022/06/22 04:43:48;;;;;;;7.85;5.88;;;13.90;95.50;;;;;;5065926;28;20078;-58
2022/06/22 04:46:19;;;;;;;6.72;6.00;;;13.80;95.60;;;;;;5067696;28;20021;-57
2022/06/22 04:48:47;;;;;;;8.18;6.38;;;13.90;95.80;;;;;;5066644;28;20023;-57
2022/06/22 04:51:33;;;;;;;7.93;5.85;;;13.90;95.90;;;;;;5068246;28;20098;-58
2022/06/22 04:54:07;;;;;;;6.47;5.85;;;14.00;95.90;;;;;;5066635;28;20078;-58
2022/06/22 04:56:38;;;;;;;6.53;5.85;;;14.00;96.00;;;;;;5064877;28;20075;-57
2022/06/22 04:59:05;;;;;;;7.93;6.32;;;14.10;96.10;;;;;;5068351;28;20632;-57
2022/06/22 05:01:42;;;;;;;7.13;5.97;;;14.10;96.20;;;;;;5068062;28;20033;-57
2022/06/22 05:04:20;;;;;;;8.52;6.40;;;14.10;96.20;;;;;;5064828;28;20477;-58
2022/06/22 05:07:56;;;;;;;9.00;6.65;;;14.20;96.30;;;;;;5069206;28;20021;-57
2022/06/22 05:10:49;;;;;;;8.65;7.10;;;14.20;96.30;;;;;;5050357;28;20039;-58
2022/06/22 05:13:27;;;;;;;8.10;6.45;;;14.30;96.60;;;;;;5055271;28;20112;-57
2022/06/22 05:15:57;;;;;;;8.67;6.80;;;14.30;96.70;;;;;;5059906;28;20062;-57
2022/06/22 05:18:30;;;;;;;9.23;7.55;;;14.30;96.80;;;;;;5058650;28;20082;-57
2022/06/22 05:21:18;;;;;;;9.82;7.80;;;14.40;97.00;;;;;;5053648;28;20043;-57
2022/06/22 05:23:50;;;;;;;9.02;7.43;;;14.50;97.20;;;;;;5059667;28;20540;-57
2022/06/22 05:26:21;;;;;;;9.65;7.50;;;14.50;97.30;;;;;;5072586;28;20028;-58
2022/06/22 05:29:31;;;;;;;10.88;8.82;;;14.50;97.40;;;;;;5069345;28;20029;-58
2022/06/22 05:32:00;;;;;;;9.13;7.50;;;14.60;97.60;;;;;;5053656;28;20020;-57
2022/06/22 05:34:33;;;;;;;11.05;8.65;;;14.60;97.80;;;;;;5054503;28;20031;-57
2022/06/22 05:37:12;;;;;;;10.07;8.32;;;14.60;97.80;;;;;;5053568;28;20033;-57
2022/06/22 05:39:39;;;;;;;10.35;7.97;;;14.70;97.90;;;;;;5091183;28;20024;-57
2022/06/22 05:42:05;;;;;;;9.15;7.68;;;14.70;98.00;;;;;;5071178;28;20681;-58
2022/06/22 05:44:31;;;;;;;10.65;8.13;;;14.80;97.90;;;;;;5065169;28;20033;-57
2022/06/22 05:46:59;;;;;;;10.30;7.03;;;14.90;98.00;;;;;;5070792;28;20038;-58
2022/06/22 05:49:53;;;;;;;9.88;8.18;;;14.90;97.90;;;;;;5056901;28;20039;-57
2022/06/22 05:52:37;;;;;;;10.20;7.65;;;15.10;97.90;;;;;;5056727;28;20025;-57
2022/06/22 05:55:16;;;;;;;9.10;6.90;;;15.10;97.90;;;;;;5061374;28;20078;-58
2022/06/22 05:58:05;;;;;;;9.10;7.13;;;15.10;97.90;;;;;;5057106;28;20556;-58
2022/06/22 06:00:57;;;;;;;11.10;8.73;;;15.20;97.90;;;;;;5058477;28;20032;-57
2022/06/22 06:03:58;;;;;;;12.15;9.15;;;15.30;97.90;;;;;;5051247;28;20052;-57
2022/06/22 06:06:28;;;;;;;10.55;8.27;;;15.40;97.90;;;;;;5060697;28;20024;-57
2022/06/22 06:09:33;;;;;;;13.23;10.20;;;15.40;98.00;;;;;;5058511;28;20547;-57
2022/06/22 06:12:30;;;;;;;12.90;9.75;;;15.50;98.00;;;;;;5055441;28;20129;-57
2022/06/22 06:14:55;;;;;;;11.63;8.57;;;15.60;98.10;;;;;;5057218;28;20539;-57
2022/06/22 06:17:30;;;;;;;12.30;10.05;;;15.60;98.10;;;;;;5064617;28;20037;-57
2022/06/22 06:19:57;;;;;;;9.63;8.68;;;15.70;98.00;;;;;;5087739;28;20071;-57
2022/06/22 06:23:13;;;;;;;10.68;9.27;;;15.80;98.00;;;;;;5056042;28;20014;-58
2022/06/22 06:29:15;;;;;;;11.85;8.02;;;15.90;97.90;;;;;;5059225;28;20558;-58
2022/06/22 06:32:22;;;;;;;10.40;7.38;;;16.00;97.60;;;;;;5059778;28;20028;-58
2022/06/22 06:35:18;;;;;;;9.93;8.18;;;16.10;97.60;;;;;;5058607;28;20025;-58
2022/06/22 06:37:55;;;;;;;8.40;7.47;;;16.10;97.40;;;;;;5070108;28;20081;-58
2022/06/22 06:40:31;;;;;;;8.75;7.45;;;16.20;97.50;;;;;;5061284;28;20028;-57
2022/06/22 06:43:33;;;;;;;10.45;8.15;;;16.30;97.10;;;;;;5062721;28;20104;-58
2022/06/22 06:46:00;;;;;;;8.02;6.57;;;16.40;96.90;;;;;;5059719;28;20357;-58
2022/06/22 06:48:28;;;;;;;8.82;7.60;;;16.40;96.90;;;;;;5065238;28;20032;-58
2022/06/22 06:50:58;;;;;;;8.70;7.03;;;16.50;96.80;;;;;;5071581;28;20048;-58
2022/06/22 06:53:28;;;;;;;10.18;7.05;;;16.60;96.60;;;;;;5055230;28;20024;-58
2022/06/22 06:56:24;;;;;;;9.23;7.00;;;16.70;96.40;;;;;;5061730;28;20457;-58
2022/06/22 06:58:55;;;;;;;8.95;6.97;;;16.80;96.10;;;;;;5063447;28;20039;-58
2022/06/22 07:01:27;;;;;;;10.88;6.90;;;16.90;95.90;;;;;;5068363;28;20027;-58
2022/06/22 07:04:29;;;;;;;14.63;8.13;;;17.00;95.70;;;;;;5071793;28;20029;-58
2022/06/22 07:07:00;;;;;;;9.07;6.53;;;17.10;95.20;;;;;;5066368;28;20496;-58
2022/06/22 07:09:47;;;;;;;8.45;6.82;;;17.20;95.00;;;;;;5058907;28;20043;-58
2022/06/22 07:12:48;;;;;;;9.43;6.45;;;17.30;94.60;;;;;;5058283;28;20024;-58
2022/06/22 07:15:18;;;;;;;11.10;7.10;;;17.40;94.40;;;;;;5049385;28;20400;-58
2022/06/22 07:17:56;;;;;;;9.38;5.65;;;17.40;94.20;;;;;;5055044;28;20021;-58
2022/06/22 07:20:26;;;;;;;7.60;5.40;;;17.60;94.00;;;;;;5087589;28;20059;-58
2022/06/22 07:23:22;;;;;;;8.32;5.93;;;17.70;93.90;;;;;;5055452;28;20032;-58
2022/06/22 07:26:12;;;;;;;8.63;5.25;;;17.90;93.60;;;;;;5053948;28;20021;-58
2022/06/22 07:28:42;;;;;;;8.38;6.03;;;18.00;93.30;;;;;;5054686;28;20025;-58
2022/06/22 07:31:15;;;;;;;10.73;6.22;;;18.10;93.10;;;;;;5065443;28;20059;-58
2022/06/22 07:33:53;;;;;;;8.07;4.95;;;18.30;92.80;;;;;;5069159;28;20044;-58
2022/06/22 07:36:25;;;;;;;7.75;5.00;;;18.40;92.40;;;;;;5069739;28;20082;-58
2022/06/22 07:39:15;;;;;;;8.65;5.45;;;18.50;92.10;;;;;;5062074;28;20028;-58
2022/06/22 07:41:41;;;;;;;7.30;4.10;;;18.70;92.00;;;;;;5069549;28;20063;-58
2022/06/22 07:44:14;;;;;;;6.45;4.45;;;18.70;91.40;;;;;;5072372;28;20071;-58
2022/06/22 07:46:52;;;;;;;9.02;4.80;;;18.90;91.10;;;;;;5067062;28;20028;-58
2022/06/22 07:49:25;;;;;;;7.68;3.95;;;19.00;90.60;;;;;;5067375;28;20021;-58
2022/06/22 07:51:54;;;;;;;4.90;3.00;;;19.10;89.30;;;;;;5060522;28;20016;-58
2022/06/22 07:54:39;;;;;;;3.80;3.08;;;19.20;88.20;;;;;;5065039;28;20024;-59
2022/06/22 07:57:17;;;;;;;5.90;3.15;;;19.30;87.30;;;;;;5065224;28;20095;-58
2022/06/22 07:59:47;;;;;;;8.30;3.00;;;19.40;86.60;;;;;;5057023;28;20082;-58
2022/06/22 08:02:20;;;;;;;7.20;3.50;;;19.50;85.80;;;;;;5066920;28;20465;-58
2022/06/22 08:05:11;;;;;;;5.32;2.80;;;19.70;85.00;;;;;;5059570;28;20029;-58
2022/06/22 08:07:50;;;;;;;3.58;2.20;;;19.80;83.50;;;;;;5055151;28;20079;-58
2022/06/22 08:11:14;;;;;;;;;;;;;;;;;;;;;
2022/06/22 08:13:50;;;;;;;4.85;2.10;;;20.10;80.10;;;;;;5043964;28;20024;-58
2022/06/22 08:16:25;;;;;;;3.88;2.28;;;20.10;78.90;;;;;;5065444;28;20016;-59
2022/06/22 08:18:50;;;;;;;5.05;2.53;;;20.20;78.10;;;;;;5068828;28;20009;-58
2022/06/22 08:21:42;;;;;;;7.90;2.35;;;20.30;77.70;;;;;;5055265;28;20025;-58
2022/06/22 08:27:43;;;;;;;4.07;1.80;;;20.40;77.00;;;;;;5050226;28;20131;-58
2022/06/22 08:30:11;;;;;;;5.78;2.30;;;20.60;76.30;;;;;;5007592;28;20028;-58
2022/06/22 08:33:14;;;;;;;5.57;2.28;;;20.60;75.70;;;;;;5044867;28;20086;-58
2022/06/22 08:36:13;;;;;;;7.20;2.72;;;20.70;75.30;;;;;;5071112;28;20399;-58
2022/06/22 08:38:46;;;;;;;;;;;20.80;74.70;;;;;;5061303;28;20464;-58
2022/06/22 08:41:42;;;;;;;5.15;1.40;;;20.80;74.70;;;;;;5066375;28;20165;-58
2022/06/22 08:44:35;;;;;;;4.05;1.60;;;20.90;74.10;;;;;;5069697;28;20025;-58
2022/06/22 08:47:54;;;;;;;;;;;;;;;;;;;;;
2022/06/22 08:50:40;;;;;;;3.50;1.70;;;21.10;71.70;;;;;;5064220;28;20031;-58
2022/06/22 08:53:19;;;;;;;4.18;1.20;;;21.10;70.60;;;;;;5060770;28;20154;-58
2022/06/22 08:55:56;;;;;;;3.80;1.33;;;21.20;70.20;;;;;;5070529;28;20044;-60
2022/06/22 08:58:59;;;;;;;2.55;1.00;;;21.30;69.80;;;;;;5072688;28;20024;-58
2022/06/22 09:01:49;;;;;;;4.93;1.10;;;21.40;68.80;;;;;;5052987;28;20021;-58
2022/06/22 09:04:21;;;;;;;2.60;1.10;;;21.50;67.90;;;;;;5052697;28;20025;-58
2022/06/22 09:07:36;;;;;;;3.35;1.08;;;21.60;67.30;;;;;;5060024;28;20029;-58
2022/06/22 09:10:21;;;;;;;4.07;1.00;;;21.70;66.20;;;;;;5068364;28;20079;-58
2022/06/22 09:12:55;;;;;;;1.33;0.60;;;21.70;65.80;;;;;;5061115;28;20024;-59
2022/06/22 09:15:20;;;;;;;5.00;0.90;;;21.80;65.40;;;;;;5069125;28;20063;-58
2022/06/22 09:17:52;;;;;;;3.35;1.00;;;21.80;64.50;;;;;;5072694;28;20092;-59
2022/06/22 09:20:38;;;;;;;3.85;0.80;;;21.90;64.30;;;;;;5058300;28;20074;-58
2022/06/22 09:23:38;;;;;;;1.60;0.70;;;22.00;63.50;;;;;;5055272;28;20071;-59
2022/06/22 09:26:25;;;;;;;2.53;0.80;;;22.10;62.60;;;;;;5067777;28;20028;-59
2022/06/22 09:28:59;;;;;;;2.03;0.70;;;22.10;63.00;;;;;;5083133;28;20016;-59
2022/06/22 09:31:55;;;;;;;2.33;0.90;;;22.20;62.20;;;;;;5075443;28;20396;-59
2022/06/22 09:34:26;;;;;;;3.10;0.68;;;22.20;61.80;;;;;;5053116;28;20024;-59
2022/06/22 09:37:12;;;;;;;2.33;0.80;;;22.30;61.90;;;;;;5053013;28;20040;-59
2022/06/22 09:39:50;;;;;;;2.35;0.73;;;22.30;61.10;;;;;;5071678;28;20024;-59
2022/06/22 09:42:31;;;;;;;1.73;0.88;;;22.40;59.50;;;;;;5066853;28;20125;-59
2022/06/22 09:45:32;;;;;;;1.75;1.20;;;22.50;59.70;;;;;;5064435;28;20029;-58
2022/06/22 09:48:34;;;;;;;2.13;0.88;;;22.50;59.70;;;;;;5055046;28;20013;-59
2022/06/22 09:51:12;;;;;;;4.93;1.23;;;22.60;59.80;;;;;;5057323;28;20025;-58
2022/06/22 09:53:37;;;;;;;3.90;0.90;;;22.60;59.80;;;;;;5061208;28;20040;-59
2022/06/22 09:56:35;;;;;;;5.05;0.80;;;22.70;58.90;;;;;;5068517;28;20048;-59
2022/06/22 09:59:22;;;;;;;2.80;0.67;;;22.70;57.90;;;;;;5027459;28;20401;-58
2022/06/22 10:02:25;;;;;;;3.28;1.00;;;22.80;58.40;;;;;;5073400;28;20488;-59
2022/06/22 10:05:45;;;;;;;2.45;0.80;;;22.90;57.90;;;;;;5067459;28;20028;-59
2022/06/22 10:08:25;;;;;;;2.47;0.80;;;23.00;58.10;;;;;;5066358;28;20073;-59
2022/06/22 10:11:22;;;;;;;1.58;0.57;;;23.00;58.10;;;;;;5065088;28;20059;-59
2022/06/22 10:13:50;;;;;;;2.58;0.70;;;23.10;58.40;;;;;;5068119;28;20016;-59
2022/06/22 10:16:18;;;;;;;2.63;0.95;;;23.20;58.10;;;;;;5077669;28;20047;-58
2022/06/22 10:18:52;;;;;;;2.40;0.70;;;23.30;56.00;;;;;;5079875;28;20035;-58
2022/06/22 10:21:55;;;;;;;1.50;0.47;;;23.30;55.70;;;;;;5071481;28;20025;-58
2022/06/22 10:24:44;;;;;;;1.52;0.70;;;23.40;55.70;;;;;;5070859;28;20178;-58
2022/06/22 10:27:27;;;;;;;3.95;0.80;;;23.50;55.60;;;;;;5071933;28;20024;-59
2022/06/22 10:30:15;;;;;;;1.88;0.60;;;23.60;55.60;;;;;;5073754;28;20028;-59
2022/06/22 10:33:07;;;;;;;1.63;0.70;;;23.60;54.10;;;;;;5075114;28;20437;-59
2022/06/22 10:35:48;;;;;;;4.60;0.65;;;23.70;53.20;;;;;;5073307;28;20040;-59
2022/06/22 10:38:34;;;;;;;6.32;0.77;;;23.80;51.60;;;;;;5074919;28;20067;-59
2022/06/22 10:47:50;;;;;;;2.60;0.73;;;24.00;51.60;;;;;;5070393;28;20032;-59
2022/06/22 10:50:34;;;;;;;2.67;0.57;;;24.10;52.30;;;;;;5074843;28;20027;-59
2022/06/22 10:53:37;;;;;;;2.67;0.50;;;24.30;52.50;;;;;;5058998;28;20082;-59
2022/06/22 10:56:09;;;;;;;2.20;0.65;;;24.40;52.20;;;;;;5064834;28;20048;-59
2022/06/22 10:58:55;;;;;;;1.45;0.40;;;24.50;50.80;;;;;;5068296;28;20024;-59
2022/06/22 11:01:47;;;;;;;1.10;0.40;;;24.60;50.30;;;;;;5066441;28;20020;-59
2022/06/22 11:04:53;;;;;;;1.70;0.60;;;24.70;49.20;;;;;;5066474;28;20532;-59
2022/06/22 11:07:30;;;;;;;1.10;0.43;;;24.80;49.50;;;;;;5065471;28;20066;-59
2022/06/22 11:10:37;;;;;;;1.63;0.50;;;24.90;49.80;;;;;;5072340;28;20040;-59
2022/06/22 11:13:45;;;;;;;1.63;0.60;;;25.00;49.60;;;;;;5062158;28;20038;-59
2022/06/22 11:17:01;;;;;;;1.10;0.43;;;25.10;48.90;;;;;;5092574;28;20032;-58
2022/06/22 11:19:44;;;;;;;2.58;0.60;;;25.20;47.70;;;;;;5078788;28;20270;-59
2022/06/22 11:22:35;;;;;;;2.10;0.50;;;25.30;47.30;;;;;;5071528;28;20047;-59
2022/06/22 11:30:48;;;;;;;1.77;0.40;;;25.40;47.00;;;;;;5077596;28;20031;-59
2022/06/22 11:31:48;;;;;;;2.95;0.40;;;25.60;47.10;;;;;;5033148;28;20047;-59
2022/06/22 11:34:50;;;;;;;1.67;0.50;;;25.70;46.00;;;;;;5023822;28;20034;-59
2022/06/22 11:37:25;;;;;;;2.25;0.60;;;25.80;45.90;;;;;;5055662;28;20029;-59
2022/06/22 11:40:22;;;;;;;2.67;0.50;;;26.00;45.60;;;;;;5080790;28;20013;-59
2022/06/22 11:43:14;;;;;;;1.50;0.50;;;26.10;45.30;;;;;;5073020;28;20424;-59
2022/06/22 11:45:58;;;;;;;1.17;0.65;;;26.30;45.60;;;;;;5064516;28;20480;-59
2022/06/22 11:48:58;;;;;;;2.55;0.55;;;26.30;45.50;;;;;;5070112;28;20107;-59
2022/06/22 11:51:50;;;;;;;1.23;0.55;;;26.40;45.20;;;;;;5064367;28;20017;-59
2022/06/22 11:54:46;;;;;;;2.72;1.05;;;26.50;44.90;;;;;;5056031;28;20021;-59
2022/06/22 11:57:38;;;;;;;3.60;0.70;;;26.70;45.50;;;;;;5079395;28;20403;-59
2022/06/22 12:00:21;;;;;;;1.58;0.50;;;26.90;45.50;;;;;;5072301;28;20025;-59
2022/06/22 12:03:13;;;;;;;5.13;0.60;;;27.00;45.40;;;;;;5080051;28;20070;-59
2022/06/22 12:05:53;;;;;;;1.27;0.60;;;27.10;44.70;;;;;;5078792;28;20031;-59
2022/06/22 12:08:44;;;;;;;1.30;0.50;;;27.30;44.90;;;;;;5065573;28;20397;-59
2022/06/22 12:11:47;;;;;;;2.67;1.13;;;27.40;44.90;;;;;;5068668;28;20047;-59
2022/06/22 12:18:01;;;;;;;1.63;0.50;;;27.60;43.90;;;;;;5072121;28;20395;-59
2022/06/22 12:20:35;;;;;;;1.27;0.50;;;27.70;43.50;;;;;;5067836;28;20123;-60
2022/06/22 12:23:45;;;;;;;0.93;0.35;;;27.80;43.50;;;;;;5071369;28;20023;-59
2022/06/22 12:26:21;;;;;;;2.28;0.63;;;28.00;43.40;;;;;;5059862;28;20086;-59
2022/06/22 12:29:11;;;;;;;0.98;0.50;;;28.10;42.30;;;;;;5072320;28;20029;-59
2022/06/22 12:31:47;;;;;;;2.03;0.40;;;28.20;41.80;;;;;;5065383;28;20017;-59
2022/06/22 12:34:37;;;;;;;3.08;0.70;;;28.30;41.00;;;;;;5069009;28;20077;-60
2022/06/22 12:37:13;;;;;;;1.52;0.50;;;28.40;42.00;;;;;;5069165;28;20012;-59
2022/06/22 12:39:48;;;;;;;3.20;0.55;;;28.50;41.10;;;;;;5066598;28;20025;-59
2022/06/22 12:42:28;;;;;;;1.00;0.50;;;28.60;40.50;;;;;;5064786;28;20028;-60
2022/06/22 12:45:07;;;;;;;0.57;0.40;;;28.70;40.90;;;;;;5070450;28;20108;-59
2022/06/22 12:48:07;;;;;;;1.85;0.55;;;28.90;40.40;;;;;;5067967;28;20377;-60
2022/06/22 12:50:48;;;;;;;3.47;0.50;;;28.80;38.60;;;;;;5068571;28;20085;-59
2022/06/22 12:53:27;;;;;;;1.77;0.60;;;28.80;39.80;;;;;;5065115;28;20028;-59
2022/06/22 12:55:59;;;;;;;1.67;0.45;;;29.00;39.30;;;;;;5063974;28;20105;-59
2022/06/22 12:58:33;;;;;;;0.70;0.40;;;29.10;39.20;;;;;;5070691;28;20044;-60
2022/06/22 13:01:00;;;;;;;1.00;0.55;;;29.20;38.70;;;;;;5067853;28;20073;-59
2022/06/22 13:06:27;;;;;;;2.50;0.40;;;29.40;38.10;;;;;;5068853;28;20033;-59
2022/06/22 13:08:53;;;;;;;;;;;29.60;38.20;;;;;;5065709;28;20461;-59
2022/06/22 13:11:22;;;;;;;1.88;0.50;;;29.60;38.30;;;;;;5064891;28;20401;-59
2022/06/22 13:14:05;;;;;;;0.88;0.40;;;29.70;38.20;;;;;;5059270;28;20041;-59
2022/06/22 13:17:13;;;;;;;1.65;0.50;;;29.80;38.30;;;;;;5065157;28;20033;-59
2022/06/22 13:20:16;;;;;;;2.50;0.40;;;29.90;37.40;;;;;;5057342;28;20021;-59
2022/06/22 13:23:22;;;;;;;1.83;0.60;;;30.00;37.90;;;;;;5059010;28;20021;-59
2022/06/22 13:26:10;;;;;;;0.70;0.40;;;30.00;36.50;;;;;;5048244;28;20394;-59
2022/06/22 13:28:58;;;;;;;1.27;0.47;;;30.10;36.50;;;;;;5092700;28;20031;-60
2022/06/22 13:31:28;;;;;;;0.70;0.60;;;30.30;36.70;;;;;;5062142;28;20021;-59
2022/06/22 13:34:17;;;;;;;1.05;0.40;;;30.40;37.00;;;;;;5089941;28;20024;-59
2022/06/22 13:37:00;;;;;;;1.70;0.63;;;30.70;37.00;;;;;;5051928;28;20024;-60
2022/06/22 13:39:43;;;;;;;1.75;0.40;;;30.70;36.80;;;;;;5050507;28;20109;-59
2022/06/22 13:42:27;;;;;;;1.23;0.40;;;30.90;36.90;;;;;;5052198;28;20025;-60
2022/06/22 13:45:21;;;;;;;1.67;0.50;;;30.90;36.80;;;;;;5053306;28;20047;-59
2022/06/22 13:48:15;;;;;;;2.08;0.63;;;31.00;36.70;;;;;;5051054;28;20073;-59
2022/06/22 13:51:08;;;;;;;1.90;0.50;;;31.00;36.90;;;;;;5061177;28;20009;-59
2022/06/22 13:54:13;;;;;;;1.95;0.50;;;31.20;37.00;;;;;;5052961;28;20016;-59
2022/06/22 13:56:50;;;;;;;1.05;0.40;;;31.20;37.20;;;;;;5054712;28;20037;-59
2022/06/22 13:59:23;;;;;;;1.85;0.45;;;31.20;36.90;;;;;;5056176;28;20377;-60
2022/06/22 14:02:20;;;;;;;0.98;0.40;;;31.30;35.60;;;;;;5056343;28;20449;-60
2022/06/22 14:05:01;;;;;;;1.92;0.50;;;31.40;35.40;;;;;;5056834;28;20029;-60
2022/06/22 14:07:36;;;;;;;2.08;0.50;;;31.50;35.70;;;;;;5062785;28;20461;-60
2022/06/22 14:10:12;;;;;;;2.10;0.40;;;31.50;36.10;;;;;;5053982;28;20021;-59
2022/06/22 14:12:44;;;;;;;2.03;0.40;;;31.70;36.00;;;;;;5052833;28;20040;-60
2022/06/22 14:15:31;;;;;;;2.05;0.60;;;31.70;35.80;;;;;;5064606;28;20029;-60
2022/06/22 14:18:04;;;;;;;2.95;0.60;;;31.80;35.60;;;;;;5068515;28;20041;-59
2022/06/22 14:20:40;;;;;;;1.13;0.50;;;31.80;35.30;;;;;;5062486;28;20032;-60
2022/06/22 14:23:14;;;;;;;1.13;0.60;;;31.90;35.40;;;;;;5068085;28;20065;-60
2022/06/22 14:26:23;;;;;;;1.00;0.40;;;31.90;34.00;;;;;;5066807;28;20036;-60
2022/06/22 14:29:03;;;;;;;0.82;0.35;;;31.80;33.90;;;;;;5066655;28;20032;-60
2022/06/22 14:31:55;;;;;;;0.90;0.50;;;31.90;34.10;;;;;;5063518;28;20019;-60